This is the latest recevied weather packets stored in our database for station/object OE5WWO. If no packets are shown the sender has not sent any weather packets the latest 10 day(s).
| Time | Temp. | Humidity | Pressure | Rain* | Wind** | Luminosity | Snow |
|---|---|---|---|---|---|---|---|
| 1777809647 | 26.11° C | 33% | 1014.2 hPa | 0 mm | - | - | - |
| 1777808438 | 25° C | 33% | 1014.4 hPa | 0 mm | - | - | - |
| 1777807862 | 25.56° C | 36% | 1014.6 hPa | 0 mm | - | - | - |
| 1777806637 | 24.44° C | 38% | 1015 hPa | 0 mm | - | - | - |
| 1777805175 | 23.89° C | 44% | 1015.3 hPa | 0 mm | - | - | - |
| 1777804246 | 23.33° C | 41% | 1015.6 hPa | 0 mm | - | - | - |
| 1777801837 | 21.67° C | 42% | 1016.2 hPa | 0 mm | - | - | - |
| 1777800937 | 21.11° C | 44% | 1016.4 hPa | 0 mm | - | - | - |
| 1777800647 | 21.11° C | 42% | 1016.4 hPa | 0 mm | - | - | - |
| 1777800037 | 21.11° C | 44% | 1016.5 hPa | 0 mm | - | - | - |
| 1777799749 | 20.56° C | 47% | 1016.5 hPa | 0 mm | - | - | - |
| 1777799436 | 20.56° C | 43% | 1016.5 hPa | 0 mm | - | - | - |
| 1777798240 | 20.56° C | 45% | 1016.8 hPa | 0 mm | - | - | - |
| 1777796739 | 18.89° C | 46% | 1016.9 hPa | 0 mm | - | - | - |
| 1777796440 | 18.89° C | 46% | 1017 hPa | 0 mm | - | - | - |
| 1777795264 | 18.33° C | 51% | 1017 hPa | 0 mm | - | - | - |
| 1777793737 | 17.22° C | 50% | 1017.1 hPa | 0 mm | - | - | - |
| 1777792544 | 16.11° C | 54% | 1017.2 hPa | 0 mm | - | - | - |
| 1777791936 | 16.11° C | 54% | 1017.1 hPa | 0 mm | - | - | - |
| 1777790748 | 15.56° C | 57% | 1017.2 hPa | 0 mm | - | - | - |
| 1777790437 | 15.56° C | 59% | 1017.1 hPa | 0 mm | - | - | - |
| 1777790137 | 15.56° C | 60% | 1017.2 hPa | 0 mm | - | - | - |
| 1777788949 | 14.44° C | 59% | 1017.1 hPa | 0 mm | - | - | - |
| 1777780536 | 8.89° C | 77% | 1016.8 hPa | 0 mm | - | - | - |
| 1777777837 | 9.44° C | 71% | 1016.8 hPa | 0 mm | - | - | - |
* Rain latest hour (hover to see other rain measurements)
** Current wind speed in m/s (hover to see current wind gust speed)